.
WxDataArchive / Data Records for 2009-01-31
2009-01-30 January 2009 2009-02-01

Data Records for Saturday, 31 January 2009

Time	Temp	Chill	HIndex	Humid	Dewpt	 Wind 	HiWind	WindDir	Rain 	Barom 
-----	----	-----	------	-----	-----	------	------	-------	-----	----- 
00:00	7.6	7.6	7.6	69	-0.4	1	3	248	0.00	30.184 
00:05	7.4	7.4	7.4	69	-0.6	1	3	248	0.00	30.177 
00:10	7.2	7.2	7.2	69	-0.8	1	3	248	0.00	30.179 
00:15	7.0	7.0	7.0	69	-1.0	0	2	248	0.00	30.178 
00:20	6.7	6.7	6.7	69	-1.3	1	2	248	0.00	30.182 
00:25	6.5	6.5	6.5	70	-1.2	1	3	248	0.00	30.182 
00:30	6.3	6.3	6.3	70	-1.4	1	4	248	0.00	30.187 
00:35	6.1	6.1	6.1	70	-1.5	0	2	270	0.00	30.188 
00:40	5.8	5.8	5.8	70	-1.8	0	2	248	0.00	30.188 
00:45	5.6	5.6	5.6	70	-2.0	0	2	248	0.00	30.188 
00:50	5.4	5.4	5.4	71	-1.9	0	2	248	0.00	30.189 
00:55	5.2	5.2	5.2	71	-2.1	0	1	248	0.00	30.188 
01:00	5.0	5.0	5.0	71	-2.3	0	2	248	0.00	30.190 
01:05	5.0	5.0	5.0	72	-2.0	0	2	248	0.00	30.192 
01:10	5.0	5.0	5.0	72	-2.0	0	1	248	0.00	30.190 
01:15	4.8	4.8	4.8	72	-2.2	0	1	248	0.00	30.185 
01:20	4.7	4.7	4.7	72	-2.3	1	3	248	0.00	30.188 
01:25	4.5	4.5	4.5	72	-2.5	0	1	248	0.00	30.191 
01:30	4.5	4.5	4.5	72	-2.5	0	2	248	0.00	30.193 
01:35	4.3	4.3	4.3	72	-2.7	0	2	248	0.00	30.192 
01:40	4.3	4.3	4.3	72	-2.7	0	3	248	0.00	30.192 
01:45	4.3	4.3	4.3	72	-2.7	0	2	248	0.00	30.191 
01:50	4.1	4.1	4.1	72	-2.9	0	2	248	0.00	30.193 
01:55	4.1	4.1	4.1	72	-2.9	0	2	248	0.00	30.193 
02:00	3.9	3.9	3.9	73	-2.8	0	1	248	0.00	30.195 
02:05	3.9	3.9	3.9	72	-3.1	0	2	248	0.00	30.192 
02:10	3.7	3.7	3.7	73	-3.0	0	1	248	0.00	30.192 
02:15	3.5	3.5	3.5	73	-3.2	0	1	248	0.00	30.191 
02:20	3.4	3.4	3.4	73	-3.3	0	1	248	0.00	30.191 
02:25	3.2	3.2	3.2	73	-3.5	0	1	248	0.00	30.188 
02:30	3.2	3.2	3.2	73	-3.5	0	2	248	0.00	30.189 
02:35	3.0	3.0	3.0	73	-3.7	0	1	248	0.00	30.190 
02:40	2.8	2.8	2.8	73	-3.9	0	0	---	0.00	30.189 
02:45	2.6	2.6	2.6	73	-4.0	0	0	---	0.00	30.191 
02:50	2.6	2.6	2.6	74	-3.8	0	0	---	0.00	30.192 
02:55	2.4	2.4	2.4	74	-4.0	0	1	248	0.00	30.190 
03:00	2.4	2.4	2.4	74	-4.0	0	1	248	0.00	30.190 
03:05	2.4	2.4	2.4	74	-4.0	0	1	248	0.00	30.191 
03:10	2.2	2.2	2.2	74	-4.2	0	1	248	0.00	30.192 
03:15	2.0	2.0	2.0	74	-4.3	0	0	---	0.00	30.189 
03:20	1.8	1.8	1.8	74	-4.5	0	0	---	0.00	30.186 
03:25	1.7	1.7	1.7	74	-4.6	0	0	---	0.00	30.181 
03:30	1.3	1.3	1.3	74	-5.0	0	0	---	0.00	30.186 
03:35	0.9	0.9	0.9	74	-5.4	0	0	---	0.00	30.186 
03:40	0.5	0.5	0.5	74	-5.8	0	0	---	0.00	30.187 
03:45	0.1	0.1	0.1	74	-6.2	0	0	---	0.00	30.183 
03:50	0.0	0.0	0.0	75	-6.0	0	0	---	0.00	30.182 
03:55	-0.2	-0.2	-0.2	75	-6.2	0	1	248	0.00	30.182 
04:00	-0.4	-0.4	-0.4	76	-6.1	0	0	---	0.00	30.182 
04:05	-0.4	-0.4	-0.4	76	-6.1	0	0	---	0.00	30.186 
04:10	-0.4	-0.4	-0.4	77	-5.9	0	0	---	0.00	30.183 
04:15	-0.4	-0.4	-0.4	77	-5.9	0	0	---	0.00	30.181 
04:20	-0.4	-0.4	-0.4	77	-5.9	0	0	---	0.00	30.180 
04:25	-0.4	-0.4	-0.4	77	-5.9	0	0	---	0.00	30.177 
04:30	-0.8	-0.8	-0.8	77	-6.2	0	0	---	0.00	30.173 
04:35	-1.0	-1.0	-1.0	77	-6.4	0	0	---	0.00	30.168 
04:40	-1.2	-1.2	-1.2	77	-6.6	0	0	---	0.00	30.165 
04:45	-1.2	-1.2	-1.2	78	-6.4	0	0	---	0.00	30.166 
04:50	-1.4	-1.4	-1.4	78	-6.6	0	0	---	0.00	30.168 
04:55	-1.6	-1.6	-1.6	78	-6.8	0	0	---	0.00	30.173 
05:00	-1.8	-1.8	-1.8	78	-7.0	0	0	---	0.00	30.173 
05:05	-2.0	-2.0	-2.0	78	-7.1	0	0	---	0.00	30.173 
05:10	-1.8	-1.8	-1.8	78	-7.0	0	0	---	0.00	30.181 
05:15	-2.0	-2.0	-2.0	78	-7.1	0	0	---	0.00	30.181 
05:20	-2.0	-2.0	-2.0	78	-7.1	0	1	248	0.00	30.181 
05:25	-2.0	-2.0	-2.0	78	-7.1	0	0	---	0.00	30.183 
05:30	-2.2	-2.2	-2.2	79	-7.1	0	0	---	0.00	30.174 
05:35	-2.2	-2.2	-2.2	79	-7.1	0	0	---	0.00	30.173 
05:40	-2.4	-2.4	-2.4	78	-7.5	0	0	---	0.00	30.183 
05:45	-2.6	-2.6	-2.6	78	-7.7	0	0	---	0.00	30.185 
05:50	-2.6	-2.6	-2.6	78	-7.7	0	0	---	0.00	30.186 
05:55	-2.6	-2.6	-2.6	79	-7.5	0	0	---	0.00	30.185 
06:00	-2.4	-2.4	-2.4	79	-7.3	0	2	248	0.00	30.185 
06:05	-2.0	-2.0	-2.0	80	-6.6	0	1	248	0.00	30.188 
06:10	-1.4	-1.4	-1.4	80	-6.0	0	0	---	0.00	30.188 
06:15	-1.2	-1.2	-1.2	80	-5.8	0	1	248	0.00	30.186 
06:20	-0.8	-0.8	-0.8	80	-5.5	0	1	248	0.00	30.187 
06:25	-0.4	-0.4	-0.4	80	-5.1	0	1	248	0.00	30.185 
06:30	-0.2	-0.2	-0.2	80	-4.9	0	1	248	0.00	30.179 
06:35	-0.2	-0.2	-0.2	80	-4.9	0	1	248	0.00	30.175 
06:40	-0.2	-0.2	-0.2	80	-4.9	0	1	248	0.00	30.174 
06:45	-0.2	-0.2	-0.2	80	-4.9	0	1	248	0.00	30.179 
06:50	0.1	0.1	0.1	80	-4.6	0	1	248	0.00	30.173 
06:55	0.1	0.1	0.1	80	-4.6	0	0	---	0.00	30.170 
07:00	0.1	0.1	0.1	80	-4.6	0	1	248	0.00	30.173 
07:05	0.3	0.3	0.3	80	-4.4	0	2	248	0.00	30.176 
07:10	0.9	0.9	0.9	81	-3.5	0	1	248	0.00	30.174 
07:15	1.3	1.3	1.3	81	-3.1	0	2	248	0.00	30.178 
07:20	1.8	1.8	1.8	81	-2.7	0	2	248	0.00	30.177 
07:25	2.2	2.2	2.2	81	-2.3	0	1	248	0.00	30.171 
07:30	2.4	2.4	2.4	80	-2.3	0	1	248	0.00	30.179 
07:35	2.6	2.6	2.6	80	-2.1	0	1	248	0.00	30.172 
07:40	2.8	2.8	2.8	80	-1.9	0	1	248	0.00	30.174 
07:45	3.0	3.0	3.0	80	-1.7	0	1	248	0.00	30.170 
07:50	3.2	3.2	3.2	80	-1.6	0	1	248	0.00	30.168 
07:55	3.4	3.4	3.4	79	-1.6	0	2	135	0.00	30.166 
08:00	3.4	3.4	3.4	79	-1.6	0	2	135	0.00	30.165 
08:05	3.4	3.4	3.4	78	-1.9	0	3	112	0.00	30.162 
08:10	3.4	3.4	3.4	78	-1.9	0	2	112	0.00	30.162 
08:15	3.2	3.2	3.2	78	-2.1	0	2	112	0.00	30.161 
08:20	3.4	3.4	3.4	78	-1.9	0	2	112	0.00	30.155 
08:25	3.5	3.5	3.5	78	-1.8	1	3	248	0.00	30.167 
08:30	3.5	3.5	3.5	78	-1.8	1	3	248	0.00	30.166 
08:35	3.9	3.9	3.9	77	-1.7	2	7	248	0.00	30.172 
08:40	4.3	4.3	4.3	77	-1.3	1	4	248	0.00	30.171 
08:45	4.7	4.7	4.7	77	-0.9	1	5	248	0.00	30.162 
08:50	5.0	5.0	5.0	77	-0.6	2	5	248	0.00	30.163 
08:55	5.4	5.4	5.4	76	-0.5	1	7	248	0.00	30.162 
09:00	5.8	5.8	5.8	76	-0.1	3	5	248	0.00	30.166 
09:05	6.1	6.1	6.1	75	-0.1	2	5	248	0.00	30.169 
09:10	6.5	6.5	6.5	74	0.0	2	6	248	0.00	30.169 
09:15	6.9	6.9	6.9	74	0.4	2	6	248	0.00	30.168 
09:20	7.2	7.2	7.2	73	0.4	1	4	248	0.00	30.171 
09:25	7.6	7.6	7.6	73	0.8	2	5	248	0.00	30.183 
09:30	7.9	7.9	7.9	73	1.1	2	6	248	0.00	30.182 
09:35	8.6	8.6	8.6	73	1.8	2	5	248	0.00	30.179 
09:40	9.0	9.0	9.0	72	1.8	3	7	248	0.00	30.172 
09:45	9.2	9.2	9.2	71	1.7	3	7	248	0.00	30.165 
09:50	9.7	9.7	9.7	71	2.2	2	4	248	0.00	30.160 
09:55	10.0	10.0	10.0	71	2.5	3	6	248	0.00	30.153 
10:00	10.4	10.4	10.4	70	2.6	2	7	248	0.00	30.156 
10:05	10.7	10.7	10.7	70	2.9	2	5	248	0.00	30.156 
10:10	11.2	11.2	11.2	69	3.0	2	5	248	0.00	30.150 
10:15	11.9	11.9	11.9	69	3.7	1	4	248	0.00	30.149 
10:20	12.3	12.3	12.3	68	3.8	1	5	248	0.00	30.148 
10:25	12.6	12.6	12.6	67	3.8	0	2	248	0.00	30.149 
10:30	12.9	12.9	12.9	67	4.0	0	3	248	0.00	30.156 
10:35	13.3	13.3	13.3	66	4.1	1	3	135	0.00	30.152 
10:40	13.6	13.6	13.6	66	4.4	0	2	225	0.00	30.150 
10:45	13.8	13.8	13.8	65	4.2	1	4	248	0.00	30.149 
10:50	13.8	13.8	13.8	64	3.9	2	6	248	0.00	30.147 
10:55	14.0	14.0	14.0	64	4.1	1	4	248	0.00	30.146 
11:00	14.1	14.1	14.1	64	4.2	2	5	248	0.00	30.148 
11:05	14.3	14.3	14.3	64	4.4	2	6	248	0.00	30.144 
11:10	14.4	14.4	14.4	65	4.8	2	5	248	0.00	30.144 
11:15	14.8	14.8	14.8	64	4.9	1	6	248	0.00	30.143 
11:20	15.1	15.1	15.1	65	5.5	1	3	270	0.00	30.142 
11:25	15.4	15.4	15.4	64	5.4	1	6	270	0.00	30.137 
11:30	15.6	15.6	15.6	64	5.6	2	7	270	0.00	30.129 
11:35	15.9	15.9	15.9	64	5.9	1	4	248	0.00	30.124 
11:40	16.2	16.2	16.2	64	6.2	1	4	90	0.00	30.119 
11:45	16.4	16.4	16.4	64	6.4	1	5	248	0.00	30.118 
11:50	16.4	16.4	16.4	64	6.4	2	5	248	0.00	30.111 
11:55	16.5	16.5	16.5	64	6.5	2	5	270	0.00	30.110 
12:00	16.9	16.9	16.9	65	7.2	1	5	248	0.00	30.101 
12:05	17.0	17.0	17.0	65	7.3	3	6	248	0.00	30.100 
12:10	17.5	17.5	17.5	65	7.8	2	5	225	0.00	30.094 
12:15	17.7	17.7	17.7	64	7.6	3	9	248	0.00	30.085 
12:20	18.3	18.3	18.3	64	8.2	2	7	248	0.00	30.083 
12:25	18.6	18.6	18.6	63	8.1	3	9	270	0.00	30.080 
12:30	18.8	12.8	18.8	63	8.3	4	9	248	0.00	30.068 
12:35	19.4	19.4	19.4	64	9.2	2	5	248	0.00	30.065 
12:40	20.0	20.0	20.0	62	9.1	3	9	248	0.00	30.064 
12:45	20.2	14.4	20.2	61	8.9	4	10	270	0.00	30.057 
12:50	20.6	20.6	20.6	61	9.3	3	10	270	0.00	30.048 
12:55	20.8	20.8	20.8	61	9.5	3	12	248	0.00	30.044 
13:00	21.1	21.1	21.1	61	9.8	3	10	248	0.00	30.038 
13:05	21.3	21.3	21.3	60	9.6	3	11	248	0.00	30.042 
13:10	21.6	16.1	21.6	60	9.9	4	12	248	0.00	30.041 
13:15	21.4	15.8	21.4	61	10.1	4	11	248	0.00	30.034 
13:20	21.9	21.9	21.9	61	10.5	2	6	315	0.00	30.030 
13:25	22.5	22.5	22.5	61	11.1	2	7	248	0.00	30.029 
13:30	22.9	22.9	22.9	60	11.1	3	9	248	0.00	30.020 
13:35	23.0	23.0	23.0	60	11.2	3	11	248	0.00	30.014 
13:40	23.0	23.0	23.0	60	11.2	3	11	270	0.00	30.013 
13:45	23.5	23.5	23.5	61	12.1	3	11	270	0.00	30.010 
13:50	23.8	23.8	23.8	60	12.0	3	7	270	0.00	30.001 
13:55	23.9	23.9	23.9	60	12.1	3	11	248	0.00	29.997 
14:00	24.2	24.2	24.2	61	12.7	2	7	248	0.00	29.994 
14:05	24.7	24.7	24.7	60	12.8	3	7	248	0.00	29.990 
14:10	24.8	19.8	24.8	59	12.5	4	11	248	0.00	29.989 
14:15	25.0	20.0	25.0	59	12.7	4	9	248	0.00	29.983 
14:20	25.3	25.3	25.3	59	13.0	3	10	270	0.00	29.981 
14:25	25.4	25.4	25.4	59	13.1	3	9	270	0.00	29.977 
14:30	25.7	25.7	25.7	59	13.4	2	9	248	0.00	29.966 
14:35	25.7	20.8	25.7	59	13.4	4	13	270	0.00	29.963 
14:40	25.8	25.8	25.8	59	13.5	3	10	270	0.00	29.963 
14:45	26.3	26.3	26.3	59	13.9	3	7	292	0.00	29.960 
14:50	26.3	26.3	26.3	59	13.9	3	7	248	0.00	29.956 
14:55	26.3	20.4	26.3	60	14.3	5	10	248	0.00	29.955 
15:00	26.4	21.6	26.4	60	14.4	4	10	248	0.00	29.955 
15:05	26.7	22.0	26.7	60	14.7	4	12	248	0.00	29.957 
15:10	27.0	27.0	27.0	60	15.0	3	10	248	0.00	29.957 
15:15	27.2	27.2	27.2	59	14.8	3	10	248	0.00	29.956 
15:20	27.2	27.2	27.2	59	14.8	3	10	248	0.00	29.954 
15:25	27.5	27.5	27.5	60	15.5	3	9	270	0.00	29.950 
15:30	27.8	23.2	27.8	60	15.7	4	10	248	0.00	29.945 
15:35	28.1	28.1	28.1	60	16.0	3	9	270	0.00	29.941 
15:40	28.4	28.4	28.4	59	15.9	3	7	248	0.00	29.937 
15:45	28.4	28.4	28.4	60	16.3	2	5	248	0.00	29.932 
15:50	28.2	28.2	28.2	60	16.1	3	11	248	0.00	29.927 
15:55	28.1	23.6	28.1	60	16.0	4	10	270	0.00	29.925 
16:00	28.1	28.1	28.1	61	16.4	3	9	248	0.00	29.917 
16:05	28.1	28.1	28.1	61	16.4	3	11	270	0.00	29.917 
16:10	27.9	27.9	27.9	61	16.2	3	11	248	0.00	29.916 
16:15	27.9	27.9	27.9	61	16.2	3	8	270	0.00	29.907 
16:20	27.8	27.8	27.8	61	16.1	3	9	248	0.00	29.904 
16:25	27.8	27.8	27.8	61	16.1	2	7	248	0.00	29.902 
16:30	27.6	27.6	27.6	62	16.3	3	9	225	0.00	29.900 
16:35	27.5	22.9	27.5	62	16.2	4	11	270	0.00	29.896 
16:40	27.5	22.9	27.5	62	16.2	4	10	248	0.00	29.888 
16:45	27.5	27.5	27.5	62	16.2	3	7	248	0.00	29.885 
16:50	27.5	27.5	27.5	62	16.2	3	10	248	0.00	29.883 
16:55	27.5	22.9	27.5	63	16.6	4	11	248	0.00	29.879 
17:00	27.5	22.9	27.5	63	16.6	4	13	248	0.00	29.871 
17:05	27.5	27.5	27.5	63	16.6	3	10	270	0.00	29.870 
17:10	27.3	27.3	27.3	63	16.4	3	7	270	0.00	29.861 
17:15	27.3	27.3	27.3	64	16.8	3	9	270	0.00	29.859 
17:20	27.3	27.3	27.3	64	16.8	3	8	270	0.00	29.857 
17:25	27.2	27.2	27.2	65	17.0	2	8	270	0.00	29.859 
17:30	27.2	27.2	27.2	65	17.0	2	5	248	0.00	29.863 
17:35	27.2	27.2	27.2	65	17.0	3	9	270	0.00	29.862 
17:40	27.0	27.0	27.0	66	17.2	3	9	248	0.00	29.863 
17:45	27.0	27.0	27.0	67	17.5	2	6	248	0.00	29.866 
17:50	27.0	27.0	27.0	67	17.5	2	10	248	0.00	29.861 
17:55	27.0	22.3	27.0	68	17.9	4	10	248	0.00	29.863 
18:00	27.0	27.0	27.0	68	17.9	3	7	248	0.00	29.858 
18:05	27.0	27.0	27.0	69	18.2	2	7	248	0.00	29.854 
18:10	27.0	27.0	27.0	69	18.2	2	7	225	0.00	29.851 
18:15	27.0	27.0	27.0	70	18.5	1	5	248	0.00	29.845 
18:20	27.2	22.5	27.2	71	19.1	4	9	270	0.00	29.842 
18:25	27.5	22.9	27.5	71	19.4	4	12	248	0.00	29.840 
18:30	27.6	27.6	27.6	71	19.4	3	9	248	0.00	29.837 
18:35	27.8	27.8	27.8	71	19.6	3	10	248	0.00	29.835 
18:40	27.9	23.3	27.9	72	20.1	4	7	248	0.00	29.835 
18:45	27.9	27.9	27.9	72	20.1	2	12	225	0.00	29.832 
18:50	28.1	28.1	28.1	73	20.6	3	6	248	0.00	29.828 
18:55	28.1	28.1	28.1	73	20.6	2	7	248	0.00	29.825 
19:00	28.2	28.2	28.2	73	20.7	3	7	248	0.00	29.825 
19:05	28.4	28.4	28.4	74	21.2	3	11	248	0.00	29.824 
19:10	28.5	28.5	28.5	74	21.3	2	5	270	0.00	29.824 
19:15	28.5	28.5	28.5	74	21.3	2	7	248	0.00	29.819 
19:20	28.7	28.7	28.7	74	21.5	2	5	248	0.00	29.819 
19:25	28.7	28.7	28.7	74	21.5	1	6	248	0.00	29.827 
19:30	28.8	28.8	28.8	74	21.6	2	4	248	0.00	29.833 
19:35	28.8	28.8	28.8	74	21.6	2	6	248	0.00	29.832 
19:40	29.0	29.0	29.0	74	21.8	2	7	248	0.00	29.831 
19:45	29.1	29.1	29.1	75	22.2	3	10	248	0.00	29.828 
19:50	29.3	29.3	29.3	75	22.4	3	10	270	0.00	29.827 
19:55	29.4	25.1	29.4	75	22.5	4	10	270	0.00	29.825 
20:00	29.4	29.4	29.4	75	22.5	3	7	248	0.00	29.820 
20:05	29.7	24.4	29.7	76	23.1	5	14	248	0.00	29.816 
20:10	29.8	25.5	29.8	76	23.2	4	12	248	0.00	29.815 
20:15	30.0	24.7	30.0	76	23.4	5	15	248	0.00	29.813 
20:20	30.1	24.8	30.1	76	23.5	5	11	270	0.00	29.812 
20:25	30.1	25.9	30.1	76	23.5	4	10	270	0.00	29.814 
20:30	30.3	25.1	30.3	76	23.7	5	11	270	0.00	29.815 
20:35	30.3	26.1	30.3	76	23.7	4	11	248	0.00	29.814 
20:40	30.3	26.1	30.3	76	23.7	4	14	248	0.00	29.812 
20:45	30.3	30.3	30.3	77	24.0	3	7	270	0.00	29.814 
20:50	30.4	25.2	30.4	77	24.1	5	11	248	0.00	29.813 
20:55	30.4	26.2	30.4	77	24.1	4	11	270	0.00	29.814 
21:00	30.4	26.2	30.4	77	24.1	4	11	248	0.00	29.815 
21:05	30.4	26.2	30.4	77	24.1	4	12	248	0.00	29.809 
21:10	30.4	26.2	30.4	77	24.1	4	11	270	0.00	29.809 
21:15	30.4	26.2	30.4	77	24.1	4	9	248	0.00	29.808 
21:20	30.6	26.5	30.6	78	24.6	4	10	248	0.00	29.805 
21:25	30.6	24.6	30.6	78	24.6	6	13	270	0.00	29.803 
21:30	30.7	25.5	30.7	77	24.4	5	13	270	0.00	29.801 
21:35	30.7	26.6	30.7	77	24.4	4	15	248	0.00	29.798 
21:40	30.6	30.6	30.6	78	24.6	3	10	248	0.00	29.799 
21:45	30.7	26.6	30.7	78	24.7	4	10	270	0.00	29.795 
21:50	30.7	25.5	30.7	78	24.7	5	10	248	0.00	29.795 
21:55	30.7	25.5	30.7	78	24.7	5	11	248	0.00	29.792 
22:00	30.9	26.8	30.9	78	24.9	4	9	248	0.00	29.791 
22:05	30.9	26.8	30.9	78	24.9	4	11	248	0.00	29.788 
22:10	31.0	25.9	31.0	79	25.3	5	14	270	0.00	29.787 
22:15	31.2	27.2	31.2	78	25.2	4	12	248	0.00	29.786 
22:20	31.2	27.2	31.2	78	25.2	4	12	248	0.00	29.785 
22:25	31.2	26.1	31.2	78	25.2	5	11	270	0.00	29.785 
22:30	31.3	26.3	31.3	78	25.3	5	12	248	0.00	29.781 
22:35	31.3	26.3	31.3	78	25.3	5	10	248	0.00	29.775 
22:40	31.3	27.3	31.3	79	25.6	4	10	248	0.00	29.780 
22:45	31.3	27.3	31.3	79	25.6	4	13	248	0.00	29.778 
22:50	31.3	27.3	31.3	79	25.6	4	15	248	0.00	29.775 
22:55	31.5	26.5	31.5	79	25.8	5	13	248	0.00	29.774 
23:00	31.3	31.3	31.3	79	25.6	3	9	248	0.00	29.772 
23:05	31.5	31.5	31.5	79	25.8	3	9	270	0.00	29.768 
23:10	31.5	27.5	31.5	79	25.8	4	11	248	0.00	29.767 
23:15	31.6	31.6	31.6	79	25.8	3	10	270	0.00	29.768 
23:20	31.8	31.8	31.8	79	26.0	3	10	248	0.00	29.767 
23:25	32.1	32.1	32.1	79	26.3	3	10	248	0.00	29.767 
23:30	32.2	28.3	32.2	79	26.4	4	10	248	0.00	29.759 
23:35	32.5	32.5	32.5	79	26.7	3	9	248	0.00	29.757 
23:40	32.7	28.9	32.7	79	26.9	4	9	248	0.00	29.757 
23:45	32.8	32.8	32.8	79	27.0	3	10	248	0.00	29.754 
23:50	33.1	29.3	33.1	79	27.3	4	10	270	0.00	29.756 
23:55	33.4	29.7	33.4	79	27.6	4	7	248	0.00	29.755 

CoCoRaHS
IN-AL-39
A2 Web Hosting
Creative Commons License
GoDaddy
search engine by freefind advanced

loaded 2018-11-13 17:16:22 • last modified 2010-11-18 10:43:29
Privacy PolicyDisclaimer
• wx.awcolley.com is powered by PmWiki v.2002016 •
• all content (unless otherwise noted) © 2018 A W Colley